createdAt,value
2018-11-04T00:00:35.565Z,19.80
2018-11-04T00:01:13.225Z,19.80
2018-11-04T00:01:50.750Z,19.80
2018-11-04T00:02:28.408Z,19.80
2018-11-04T00:03:05.832Z,19.80
2018-11-04T00:03:43.432Z,19.80
2018-11-04T00:04:20.932Z,19.80
2018-11-04T00:04:58.395Z,19.80
2018-11-04T00:05:35.932Z,19.80
2018-11-04T00:06:13.625Z,19.80
2018-11-04T00:06:51.021Z,19.80
2018-11-04T00:07:28.572Z,19.80
2018-11-04T00:08:06.141Z,19.70
2018-11-04T00:08:43.640Z,19.80
2018-11-04T00:09:21.244Z,19.80
2018-11-04T00:09:58.599Z,19.80
2018-11-04T00:10:36.078Z,19.80
2018-11-04T00:11:13.609Z,19.80
2018-11-04T00:11:51.062Z,19.80
2018-11-04T00:12:28.510Z,19.80
2018-11-04T00:13:06.185Z,19.80
2018-11-04T00:13:43.742Z,19.70
2018-11-04T00:14:21.178Z,19.80
2018-11-04T00:14:58.627Z,19.80
2018-11-04T00:15:36.412Z,19.80
2018-11-04T00:16:13.756Z,19.70
2018-11-04T00:16:51.481Z,19.70
2018-11-04T00:17:28.833Z,19.70
2018-11-04T00:18:06.357Z,19.80
2018-11-04T00:18:43.966Z,19.70
2018-11-04T00:19:21.446Z,19.80
2018-11-04T00:19:58.915Z,19.70
2018-11-04T00:20:36.486Z,19.70
2018-11-04T00:21:14.011Z,19.70
2018-11-04T00:21:51.481Z,19.70
2018-11-04T00:22:29.096Z,19.70
2018-11-04T00:23:06.678Z,19.80
2018-11-04T00:23:44.136Z,19.80
2018-11-04T00:24:21.735Z,19.80
2018-11-04T00:24:59.282Z,19.70
2018-11-04T00:25:36.877Z,19.80
2018-11-04T00:26:14.378Z,19.70
2018-11-04T00:26:51.800Z,19.70
2018-11-04T00:27:29.273Z,19.70
2018-11-04T00:28:06.784Z,19.70
2018-11-04T00:28:44.264Z,19.70
2018-11-04T00:29:21.971Z,19.70
2018-11-04T00:29:59.544Z,19.70
2018-11-04T00:30:37.283Z,19.70
2018-11-04T00:31:14.827Z,19.70
2018-11-04T00:31:52.323Z,19.70
2018-11-04T00:32:29.828Z,19.70
2018-11-04T00:33:07.249Z,19.70
2018-11-04T00:33:44.691Z,19.70
2018-11-04T00:34:22.154Z,19.70
2018-11-04T00:34:59.592Z,19.80
2018-11-04T00:35:37.085Z,19.70
2018-11-04T00:36:14.545Z,19.70
2018-11-04T00:36:52.071Z,19.70
2018-11-04T00:37:29.641Z,19.70
2018-11-04T00:38:07.298Z,19.70
2018-11-04T00:38:44.829Z,19.70
2018-11-04T00:39:22.151Z,19.70
2018-11-04T00:39:59.862Z,19.70
2018-11-04T00:40:37.414Z,19.70
2018-11-04T00:41:14.800Z,19.70
2018-11-04T00:41:52.159Z,19.70
2018-11-04T00:42:29.646Z,19.40
2018-11-04T00:43:07.095Z,19.70
2018-11-04T00:43:44.679Z,19.70
2018-11-04T00:44:22.100Z,19.80
2018-11-04T00:44:59.586Z,19.80
2018-11-04T00:45:37.160Z,19.80
2018-11-04T00:46:14.748Z,19.70
2018-11-04T00:46:52.275Z,19.70
2018-11-04T00:47:29.789Z,19.70
2018-11-04T00:48:07.080Z,19.70
2018-11-04T00:48:44.729Z,19.70
2018-11-04T00:49:22.203Z,19.70
2018-11-04T00:49:59.680Z,19.70
2018-11-04T00:50:37.247Z,19.80
2018-11-04T00:51:14.739Z,19.80
2018-11-04T00:51:52.211Z,19.70
2018-11-04T00:52:29.589Z,19.70
2018-11-04T00:53:07.074Z,19.70
2018-11-04T00:53:44.685Z,19.70
2018-11-04T00:54:22.276Z,19.80
2018-11-04T00:54:59.847Z,19.70
2018-11-04T00:55:37.569Z,19.70
2018-11-04T00:56:14.968Z,19.70
2018-11-04T00:56:52.516Z,19.70
2018-11-04T00:57:29.925Z,19.70
2018-11-04T00:58:07.455Z,19.70
2018-11-04T00:58:44.855Z,19.70
2018-11-04T00:59:22.467Z,19.70
2018-11-04T01:00:00.038Z,19.70
2018-11-04T01:00:37.576Z,19.70
2018-11-04T01:01:15.219Z,19.70
2018-11-04T01:01:52.818Z,19.70
2018-11-04T01:02:30.252Z,19.70
2018-11-04T01:03:07.854Z,19.70
2018-11-04T01:03:45.496Z,19.70
2018-11-04T01:04:23.028Z,19.70
2018-11-04T01:05:00.478Z,19.70
2018-11-04T01:05:38.204Z,19.70
2018-11-04T01:06:15.608Z,19.70
2018-11-04T01:06:53.220Z,19.80
2018-11-04T01:07:30.707Z,19.70
2018-11-04T01:08:08.033Z,19.70
2018-11-04T01:08:45.678Z,19.70
2018-11-04T01:09:23.317Z,19.70
2018-11-04T01:10:00.814Z,19.70
2018-11-04T01:10:38.404Z,19.70
2018-11-04T01:11:16.045Z,19.70
2018-11-04T01:11:53.504Z,19.70
2018-11-04T01:12:31.134Z,19.70
2018-11-04T01:13:08.578Z,19.70
2018-11-04T01:13:45.955Z,19.70
2018-11-04T01:14:23.309Z,19.70
2018-11-04T01:15:00.827Z,19.70
2018-11-04T01:15:38.228Z,19.70
2018-11-04T01:16:15.668Z,19.70
2018-11-04T01:16:53.453Z,19.70
2018-11-04T01:17:30.802Z,19.70
2018-11-04T01:18:08.386Z,19.70
2018-11-04T01:18:45.932Z,19.70
2018-11-04T01:19:23.422Z,19.70
2018-11-04T01:20:00.907Z,19.70
2018-11-04T01:20:38.370Z,19.70
2018-11-04T01:21:15.947Z,19.70
2018-11-04T01:21:53.423Z,19.70
2018-11-04T01:22:30.992Z,19.70
2018-11-04T01:23:08.627Z,19.70
2018-11-04T01:23:46.101Z,19.80
2018-11-04T01:24:23.777Z,19.70
2018-11-04T01:25:01.900Z,19.70
2018-11-04T01:25:39.546Z,19.70
2018-11-04T01:26:17.032Z,19.70
2018-11-04T01:26:54.535Z,19.70
2018-11-04T01:27:32.093Z,19.70
2018-11-04T01:28:09.702Z,19.70
2018-11-04T01:28:47.401Z,19.70
2018-11-04T01:29:25.122Z,19.70
2018-11-04T01:30:02.737Z,19.70
2018-11-04T01:30:40.411Z,19.70
2018-11-04T01:31:17.908Z,19.70
2018-11-04T01:31:55.395Z,19.70
2018-11-04T01:32:33.384Z,19.70
2018-11-04T01:33:10.761Z,19.70
2018-11-04T01:33:48.183Z,19.70
2018-11-04T01:34:25.911Z,19.70
2018-11-04T01:35:03.370Z,19.70
2018-11-04T01:35:40.764Z,19.70
2018-11-04T01:36:18.361Z,19.70
2018-11-04T01:36:55.841Z,19.70
2018-11-04T01:37:33.353Z,19.70
2018-11-04T01:38:10.990Z,19.70
2018-11-04T01:38:48.891Z,19.70
2018-11-04T01:39:26.591Z,19.70
2018-11-04T01:40:04.002Z,19.70
2018-11-04T01:40:41.451Z,19.70
2018-11-04T01:41:18.890Z,19.70
2018-11-04T01:41:56.226Z,19.70
2018-11-04T01:42:33.676Z,19.40
2018-11-04T01:43:11.263Z,19.70
2018-11-04T01:43:48.776Z,19.70
2018-11-04T01:44:26.261Z,19.70
2018-11-04T01:45:04.000Z,19.70
2018-11-04T01:45:41.418Z,19.70
2018-11-04T01:46:19.071Z,19.70
2018-11-04T01:46:56.555Z,19.70
2018-11-04T01:47:34.202Z,19.70
2018-11-04T01:48:11.531Z,19.70
2018-11-04T01:48:48.899Z,19.70
2018-11-04T01:49:26.319Z,19.70
2018-11-04T01:50:03.829Z,19.70
2018-11-04T01:50:41.302Z,19.70
2018-11-04T01:51:18.838Z,19.70
2018-11-04T01:51:56.306Z,19.70
2018-11-04T01:52:33.845Z,19.70
2018-11-04T01:53:11.409Z,19.70
2018-11-04T01:53:48.851Z,19.70
2018-11-04T01:54:26.308Z,19.70
2018-11-04T01:55:03.870Z,19.70
2018-11-04T01:55:41.435Z,19.70
2018-11-04T01:56:18.873Z,19.70
2018-11-04T01:56:56.429Z,19.70
2018-11-04T01:57:34.036Z,19.70
2018-11-04T01:58:11.678Z,19.70
2018-11-04T01:58:49.134Z,19.70
2018-11-04T01:59:26.814Z,19.70
2018-11-04T02:00:04.437Z,19.70
2018-11-04T02:00:41.814Z,19.70
2018-11-04T02:01:19.298Z,19.70
2018-11-04T02:01:56.732Z,19.70
2018-11-04T02:02:34.407Z,19.70
2018-11-04T02:03:11.979Z,19.70
2018-11-04T02:03:49.508Z,19.70
2018-11-04T02:04:26.949Z,19.70
2018-11-04T02:05:04.478Z,19.70
2018-11-04T02:05:42.067Z,19.70
2018-11-04T02:06:19.663Z,19.70
2018-11-04T02:06:57.218Z,19.70
2018-11-04T02:07:34.678Z,19.70
2018-11-04T02:08:12.193Z,19.70
2018-11-04T02:08:49.574Z,19.70
2018-11-04T02:09:27.196Z,19.70
2018-11-04T02:10:04.658Z,19.70
2018-11-04T02:10:42.242Z,19.70
2018-11-04T02:11:19.780Z,19.70
2018-11-04T02:11:57.212Z,19.70
2018-11-04T02:12:34.799Z,19.70
2018-11-04T02:13:12.180Z,19.70
2018-11-04T02:13:49.525Z,19.70
2018-11-04T02:14:27.153Z,19.60
2018-11-04T02:15:04.446Z,19.70
2018-11-04T02:15:41.955Z,19.70
2018-11-04T02:16:19.669Z,19.70
2018-11-04T02:16:57.201Z,19.70
2018-11-04T02:17:34.802Z,19.70
2018-11-04T02:18:12.422Z,19.70
2018-11-04T02:18:50.128Z,19.70
2018-11-04T02:19:27.843Z,19.70
2018-11-04T02:20:05.297Z,19.60
2018-11-04T02:20:42.850Z,19.70
2018-11-04T02:21:20.395Z,19.70
2018-11-04T02:21:57.900Z,19.70
2018-11-04T02:22:35.415Z,19.60
2018-11-04T02:23:13.120Z,19.60
2018-11-04T02:23:50.767Z,19.70
2018-11-04T02:24:28.275Z,19.70
2018-11-04T02:25:05.946Z,19.70
2018-11-04T02:25:43.495Z,19.60
2018-11-04T02:26:20.965Z,19.70
2018-11-04T02:26:58.605Z,19.70
2018-11-04T02:27:36.114Z,19.70
2018-11-04T02:28:13.746Z,19.70
2018-11-04T02:28:51.231Z,19.60
2018-11-04T02:29:28.681Z,19.70
2018-11-04T02:30:06.145Z,19.60
2018-11-04T02:30:43.704Z,19.60
2018-11-04T02:31:21.095Z,19.70
2018-11-04T02:31:58.462Z,19.60
2018-11-04T02:32:36.055Z,19.70
2018-11-04T02:33:13.614Z,19.70
2018-11-04T02:33:51.190Z,19.70
2018-11-04T02:34:28.637Z,19.60
2018-11-04T02:35:06.105Z,19.60
2018-11-04T02:35:43.703Z,19.60
2018-11-04T02:36:21.252Z,19.60
2018-11-04T02:36:58.810Z,19.70
2018-11-04T02:37:36.323Z,19.70
2018-11-04T02:38:13.932Z,19.60
2018-11-04T02:38:51.277Z,19.70
2018-11-04T02:39:28.984Z,19.70
2018-11-04T02:40:06.532Z,19.70
2018-11-04T02:40:43.908Z,19.70
2018-11-04T02:41:21.403Z,19.70
2018-11-04T02:41:58.939Z,19.70
2018-11-04T02:42:36.411Z,19.60
2018-11-04T02:43:13.972Z,19.70
2018-11-04T02:43:52.661Z,19.70
2018-11-04T02:44:30.217Z,19.60
2018-11-04T02:45:07.792Z,19.70
2018-11-04T02:45:45.333Z,19.60
2018-11-04T02:46:22.753Z,19.70
2018-11-04T02:47:00.282Z,19.70
2018-11-04T02:47:37.768Z,19.70
2018-11-04T02:48:15.142Z,19.70
2018-11-04T02:48:52.641Z,19.70
2018-11-04T02:49:30.193Z,19.70
2018-11-04T02:50:07.902Z,19.70
2018-11-04T02:50:45.517Z,19.70
2018-11-04T02:51:23.066Z,19.70
2018-11-04T02:52:00.471Z,19.70
2018-11-04T02:52:38.031Z,19.70
2018-11-04T02:53:15.484Z,19.70
2018-11-04T02:53:53.051Z,19.70
2018-11-04T02:54:30.596Z,19.70
2018-11-04T02:55:07.980Z,19.70
2018-11-04T02:55:45.563Z,19.70
2018-11-04T02:56:23.002Z,19.70
2018-11-04T02:57:00.621Z,19.70
2018-11-04T02:57:38.161Z,19.70
2018-11-04T02:58:15.651Z,19.70
2018-11-04T02:58:53.173Z,19.70
2018-11-04T02:59:30.732Z,19.70
2018-11-04T03:00:08.188Z,19.70
2018-11-04T03:00:45.701Z,19.70
2018-11-04T03:01:23.154Z,19.70
2018-11-04T03:02:00.671Z,19.70
2018-11-04T03:02:38.040Z,19.70
2018-11-04T03:03:15.601Z,19.70
2018-11-04T03:03:52.991Z,19.70
2018-11-04T03:04:30.518Z,19.70
2018-11-04T03:05:07.965Z,19.70
2018-11-04T03:05:45.491Z,19.70
2018-11-04T03:06:23.080Z,19.70
2018-11-04T03:07:00.484Z,19.70
2018-11-04T03:07:37.920Z,19.70
2018-11-04T03:08:15.341Z,19.70
2018-11-04T03:08:52.900Z,19.70
2018-11-04T03:09:30.482Z,19.70
2018-11-04T03:10:08.068Z,19.70
2018-11-04T03:10:45.479Z,19.70
2018-11-04T03:11:23.010Z,19.70
2018-11-04T03:12:00.626Z,19.70
2018-11-04T03:12:38.160Z,19.70
2018-11-04T03:13:15.690Z,19.70
2018-11-04T03:13:53.210Z,19.70
2018-11-04T03:14:30.660Z,19.70
2018-11-04T03:15:07.994Z,19.70
2018-11-04T03:15:45.439Z,19.70
2018-11-04T03:16:22.820Z,19.70
2018-11-04T03:17:00.409Z,19.70
2018-11-04T03:17:37.965Z,19.70
2018-11-04T03:18:15.403Z,19.70
2018-11-04T03:18:52.720Z,19.70
2018-11-04T03:19:30.338Z,19.70
2018-11-04T03:20:07.700Z,19.70
2018-11-04T03:20:45.050Z,19.70
2018-11-04T03:21:22.379Z,19.70
2018-11-04T03:21:59.954Z,19.70
2018-11-04T03:22:37.350Z,19.70
2018-11-04T03:23:14.797Z,19.70
2018-11-04T03:23:52.137Z,19.70
2018-11-04T03:24:29.584Z,19.70
2018-11-04T03:25:07.055Z,19.70
2018-11-04T03:25:44.570Z,19.70
2018-11-04T03:26:22.319Z,19.70
2018-11-04T03:26:59.842Z,19.70
2018-11-04T03:27:37.378Z,19.70
2018-11-04T03:28:14.882Z,19.70
2018-11-04T03:28:52.298Z,19.70
2018-11-04T03:29:29.863Z,19.70
2018-11-04T03:30:07.529Z,19.70
2018-11-04T03:30:45.063Z,19.70
2018-11-04T03:31:22.528Z,19.70
2018-11-04T03:31:59.908Z,19.70
2018-11-04T03:32:37.326Z,19.70
2018-11-04T03:33:14.843Z,19.70
2018-11-04T03:33:52.546Z,19.70
2018-11-04T03:34:30.009Z,19.70
2018-11-04T03:35:07.568Z,19.70
2018-11-04T03:35:45.034Z,19.70
2018-11-04T03:36:22.469Z,19.70
2018-11-04T03:36:59.932Z,19.70
2018-11-04T03:37:37.437Z,19.70
2018-11-04T03:38:15.062Z,19.70
2018-11-04T03:38:52.569Z,19.70
2018-11-04T03:39:30.208Z,19.70
2018-11-04T03:40:07.739Z,19.80
2018-11-04T03:40:45.210Z,19.70
2018-11-04T03:41:22.677Z,19.70
2018-11-04T03:42:00.308Z,19.70
2018-11-04T03:42:37.677Z,19.70
2018-11-04T03:43:15.441Z,19.70
2018-11-04T03:43:53.009Z,19.70
2018-11-04T03:44:30.623Z,19.70
2018-11-04T03:45:08.082Z,19.70
2018-11-04T03:45:45.699Z,19.70
2018-11-04T03:46:23.072Z,19.70
2018-11-04T03:47:00.794Z,19.70
2018-11-04T03:47:38.296Z,19.70
2018-11-04T03:48:15.830Z,19.80
2018-11-04T03:48:53.307Z,19.80
2018-11-04T03:49:30.772Z,19.70
2018-11-04T03:50:08.427Z,19.70
2018-11-04T03:50:45.778Z,19.70
2018-11-04T03:51:23.288Z,19.80
2018-11-04T03:52:01.019Z,19.70
2018-11-04T03:52:38.565Z,19.80
2018-11-04T03:53:16.048Z,19.80
2018-11-04T03:53:53.599Z,19.70
2018-11-04T03:54:31.132Z,19.80
2018-11-04T03:55:08.542Z,19.80
2018-11-04T03:55:46.261Z,19.70
2018-11-04T03:56:23.835Z,19.80
2018-11-04T03:57:01.418Z,19.80
2018-11-04T03:57:38.878Z,19.80
2018-11-04T03:58:16.328Z,19.80
2018-11-04T03:58:53.853Z,19.80
2018-11-04T03:59:31.451Z,19.80
2018-11-04T04:00:08.966Z,19.80
2018-11-04T04:00:46.438Z,19.80
2018-11-04T04:01:24.057Z,19.70
2018-11-04T04:02:01.488Z,19.70
2018-11-04T04:02:38.906Z,19.80
2018-11-04T04:03:16.626Z,19.80
2018-11-04T04:03:54.090Z,19.70
2018-11-04T04:04:31.721Z,19.80
2018-11-04T04:05:09.239Z,19.80
2018-11-04T04:05:46.729Z,19.80
2018-11-04T04:06:24.192Z,19.80
2018-11-04T04:07:01.888Z,19.80
2018-11-04T04:07:39.332Z,19.70
2018-11-04T04:08:16.785Z,19.70
2018-11-04T04:08:54.416Z,19.80
2018-11-04T04:09:32.019Z,19.80
2018-11-04T04:10:09.563Z,19.80
2018-11-04T04:10:47.197Z,19.70
2018-11-04T04:11:24.767Z,19.80
2018-11-04T04:12:02.227Z,19.70
2018-11-04T04:12:39.926Z,19.80
2018-11-04T04:13:17.416Z,19.80
2018-11-04T04:13:54.795Z,19.80
2018-11-04T04:14:32.287Z,19.80
2018-11-04T04:15:09.866Z,19.70
2018-11-04T04:15:47.401Z,19.80
2018-11-04T04:16:25.006Z,19.80
2018-11-04T04:17:02.511Z,19.80
2018-11-04T04:17:40.067Z,19.80
2018-11-04T04:18:17.653Z,19.80
2018-11-04T04:18:55.131Z,19.80
2018-11-04T04:19:32.666Z,19.80
2018-11-04T04:20:10.096Z,19.80
2018-11-04T04:20:47.627Z,19.70
2018-11-04T04:21:25.166Z,19.70
2018-11-04T04:22:02.636Z,19.80
2018-11-04T04:22:40.146Z,19.70
2018-11-04T04:23:17.526Z,19.80
2018-11-04T04:23:54.930Z,19.80
2018-11-04T04:24:32.618Z,19.80
2018-11-04T04:25:10.096Z,19.80
2018-11-04T04:25:47.684Z,19.80
2018-11-04T04:26:25.275Z,19.70
2018-11-04T04:27:02.773Z,19.80
2018-11-04T04:27:40.355Z,19.80
2018-11-04T04:28:17.887Z,19.80
2018-11-04T04:28:55.552Z,19.70
2018-11-04T04:29:33.038Z,19.80
2018-11-04T04:30:10.405Z,19.80
2018-11-04T04:30:47.923Z,19.80
2018-11-04T04:31:25.666Z,19.80
2018-11-04T04:32:03.132Z,19.80
2018-11-04T04:32:40.604Z,19.70
2018-11-04T04:33:18.284Z,19.80
2018-11-04T04:33:55.675Z,19.80
2018-11-04T04:34:33.283Z,19.80
2018-11-04T04:35:10.634Z,19.80
2018-11-04T04:35:48.114Z,19.80
2018-11-04T04:36:25.634Z,19.80
2018-11-04T04:37:03.217Z,19.80
2018-11-04T04:37:40.656Z,19.80
2018-11-04T04:38:18.286Z,19.80
2018-11-04T04:38:55.988Z,19.80
2018-11-04T04:39:33.617Z,19.80
2018-11-04T04:40:11.346Z,19.80
2018-11-04T04:40:49.037Z,19.80
2018-11-04T04:41:26.623Z,19.80
2018-11-04T04:42:04.212Z,19.80
2018-11-04T04:42:41.711Z,19.80
2018-11-04T04:43:19.358Z,19.80
2018-11-04T04:43:56.857Z,19.80
2018-11-04T04:44:34.465Z,19.80
2018-11-04T04:45:11.876Z,19.90
2018-11-04T04:45:49.325Z,19.80
2018-11-04T04:46:26.968Z,19.90
2018-11-04T04:47:04.470Z,19.90
2018-11-04T04:47:41.998Z,19.90
2018-11-04T04:48:19.436Z,19.90
2018-11-04T04:48:56.992Z,19.90
2018-11-04T04:49:34.537Z,19.90
2018-11-04T04:50:12.083Z,19.90
2018-11-04T04:50:49.586Z,19.80
2018-11-04T04:51:27.290Z,19.90
2018-11-04T04:52:04.814Z,19.80
2018-11-04T04:52:42.326Z,19.80
2018-11-04T04:53:19.755Z,19.90
2018-11-04T04:53:57.114Z,19.90
2018-11-04T04:54:34.578Z,19.80
2018-11-04T04:55:12.020Z,19.90
2018-11-04T04:55:49.521Z,19.80
2018-11-04T04:56:27.145Z,19.90
2018-11-04T04:57:04.703Z,19.80
2018-11-04T04:57:42.214Z,19.90
2018-11-04T04:58:19.642Z,19.90
2018-11-04T04:58:57.192Z,19.90
2018-11-04T04:59:34.695Z,19.90
2018-11-04T05:00:12.090Z,19.80
2018-11-04T05:00:49.701Z,19.90
2018-11-04T05:02:02.109Z,19.90
2018-11-04T05:02:39.570Z,19.90
2018-11-04T05:03:17.168Z,19.80
2018-11-04T05:03:54.711Z,19.90
2018-11-04T05:04:32.180Z,19.90
2018-11-04T05:05:09.599Z,19.90
2018-11-04T05:05:46.980Z,19.80
2018-11-04T05:06:24.558Z,19.80
2018-11-04T05:07:01.832Z,19.90
2018-11-04T05:07:39.272Z,19.90
2018-11-04T05:08:16.878Z,19.80
2018-11-04T05:08:54.349Z,19.80
2018-11-04T05:09:31.968Z,19.80
2018-11-04T05:10:09.565Z,19.80
2018-11-04T05:10:46.947Z,19.80
2018-11-04T05:11:24.435Z,19.90
2018-11-04T05:12:01.881Z,19.80
2018-11-04T05:12:39.500Z,19.80
2018-11-04T05:13:17.125Z,19.80
2018-11-04T05:13:54.574Z,19.80
2018-11-04T05:14:32.114Z,19.80
2018-11-04T05:15:09.630Z,19.80
2018-11-04T05:15:47.083Z,19.80
2018-11-04T05:16:24.827Z,19.90
2018-11-04T05:17:02.134Z,19.90
2018-11-04T05:17:39.742Z,19.90
2018-11-04T05:18:17.359Z,19.90
2018-11-04T05:18:54.729Z,19.90
2018-11-04T05:19:32.338Z,19.90
2018-11-04T05:20:09.916Z,19.90
2018-11-04T05:20:47.433Z,19.90
2018-11-04T05:21:24.927Z,19.90
2018-11-04T05:22:02.369Z,19.90
2018-11-04T05:22:39.948Z,19.90
2018-11-04T05:23:17.377Z,19.90
2018-11-04T05:23:54.852Z,19.80
2018-11-04T05:24:32.500Z,19.90
2018-11-04T05:25:09.931Z,19.80
2018-11-04T05:25:47.586Z,19.80
2018-11-04T05:26:25.195Z,19.90
2018-11-04T05:27:02.504Z,19.80
2018-11-04T05:27:40.138Z,19.90
2018-11-04T05:28:17.567Z,19.90
2018-11-04T05:28:55.257Z,19.90
2018-11-04T05:29:32.624Z,19.90
2018-11-04T05:30:09.897Z,19.80
2018-11-04T05:30:47.355Z,19.80
2018-11-04T05:31:24.694Z,19.80
2018-11-04T05:32:02.346Z,19.80
2018-11-04T05:32:39.990Z,19.90
2018-11-04T05:33:17.484Z,19.80
2018-11-04T05:33:55.085Z,19.80
2018-11-04T05:34:32.603Z,19.80
2018-11-04T05:35:10.051Z,19.80
2018-11-04T05:35:47.585Z,19.80
2018-11-04T05:36:25.147Z,19.70
2018-11-04T05:37:02.594Z,19.50
2018-11-04T05:37:40.124Z,19.40
2018-11-04T05:38:17.553Z,19.40
2018-11-04T05:38:54.944Z,19.30
2018-11-04T05:39:32.465Z,19.20
2018-11-04T05:40:09.943Z,19.10
2018-11-04T05:40:47.550Z,19.00
2018-11-04T05:41:25.114Z,19.00
2018-11-04T05:42:02.622Z,19.10
2018-11-04T05:42:40.062Z,19.10
2018-11-04T05:43:17.821Z,20.20
2018-11-04T05:43:55.389Z,19.20
2018-11-04T05:44:33.011Z,19.20
2018-11-04T05:45:10.428Z,19.20
2018-11-04T05:45:47.859Z,19.20
2018-11-04T05:46:25.395Z,19.20
2018-11-04T05:47:02.819Z,19.10
2018-11-04T05:47:40.458Z,19.10
2018-11-04T05:48:17.988Z,18.40
2018-11-04T05:48:55.459Z,19.00
2018-11-04T05:49:32.769Z,19.00
2018-11-04T05:50:10.391Z,19.00
2018-11-04T05:50:47.936Z,19.00
2018-11-04T05:51:25.537Z,19.10
2018-11-04T05:52:02.966Z,19.10
2018-11-04T05:52:40.448Z,19.00
2018-11-04T05:53:17.900Z,19.10
2018-11-04T05:53:55.290Z,19.10
2018-11-04T05:54:32.730Z,19.10
2018-11-04T05:55:10.431Z,19.10
2018-11-04T05:55:48.129Z,19.10
2018-11-04T05:56:25.594Z,19.20
2018-11-04T05:57:03.026Z,19.10
2018-11-04T05:57:40.476Z,19.10
2018-11-04T05:58:18.091Z,19.10
2018-11-04T05:58:55.720Z,19.10
2018-11-04T05:59:33.061Z,19.10
2018-11-04T06:00:10.683Z,19.10
2018-11-04T06:00:48.119Z,19.10
2018-11-04T06:01:25.654Z,19.10
2018-11-04T06:02:03.178Z,19.10
2018-11-04T06:02:40.737Z,19.10
2018-11-04T06:03:18.227Z,19.20
2018-11-04T06:03:55.824Z,19.20
2018-11-04T06:04:33.230Z,19.20
2018-11-04T06:05:10.690Z,19.20
2018-11-04T06:05:48.220Z,19.20
2018-11-04T06:06:25.811Z,19.30
2018-11-04T06:07:03.169Z,19.30
2018-11-04T06:07:40.711Z,19.30
2018-11-04T06:08:18.291Z,19.40
2018-11-04T06:08:55.688Z,19.40
2018-11-04T06:09:33.177Z,19.40
2018-11-04T06:10:10.667Z,19.40
2018-11-04T06:10:48.122Z,19.40
2018-11-04T06:11:25.456Z,19.40
2018-11-04T06:12:02.758Z,19.50
2018-11-04T06:12:40.126Z,19.50
2018-11-04T06:13:17.467Z,19.40
2018-11-04T06:13:54.987Z,19.50
2018-11-04T06:14:32.298Z,19.50
2018-11-04T06:15:09.757Z,19.50
2018-11-04T06:15:47.029Z,19.50
2018-11-04T06:16:24.630Z,19.50
2018-11-04T06:17:02.168Z,19.50
2018-11-04T06:17:39.700Z,19.50
2018-11-04T06:18:17.097Z,19.50
2018-11-04T06:18:54.353Z,19.50
2018-11-04T06:19:31.956Z,19.50
2018-11-04T06:20:09.312Z,19.50
2018-11-04T06:20:46.668Z,19.50
2018-11-04T06:21:24.252Z,19.50
2018-11-04T06:22:01.634Z,19.60
2018-11-04T06:22:39.301Z,19.50
2018-11-04T06:23:16.783Z,19.50
2018-11-04T06:23:54.179Z,19.50
2018-11-04T06:24:31.501Z,19.60
2018-11-04T06:25:08.963Z,19.60
2018-11-04T06:25:46.498Z,19.60
2018-11-04T06:26:23.864Z,19.60
2018-11-04T06:27:01.450Z,19.50
2018-11-04T06:27:38.911Z,19.50
2018-11-04T06:28:16.236Z,19.60
2018-11-04T06:28:53.482Z,19.50
2018-11-04T06:29:31.050Z,19.60
2018-11-04T06:30:08.595Z,19.50
2018-11-04T06:30:46.110Z,19.60
2018-11-04T06:31:23.751Z,19.50
2018-11-04T06:32:01.158Z,19.50
2018-11-04T06:32:38.498Z,19.50
2018-11-04T06:33:16.017Z,19.50
2018-11-04T06:33:53.510Z,19.60
2018-11-04T06:34:30.975Z,19.60
2018-11-04T06:35:08.328Z,19.60
2018-11-04T06:35:45.888Z,19.50
2018-11-04T06:36:23.168Z,19.60
2018-11-04T06:37:00.913Z,19.50
2018-11-04T06:37:38.417Z,19.60
2018-11-04T06:38:15.858Z,19.60
2018-11-04T06:38:53.108Z,19.50
2018-11-04T06:39:30.424Z,19.60
2018-11-04T06:40:07.725Z,19.50
2018-11-04T06:40:45.147Z,19.50
2018-11-04T06:41:22.725Z,19.50
2018-11-04T06:42:00.347Z,19.60
2018-11-04T06:42:37.798Z,19.60
2018-11-04T06:43:15.220Z,19.60
2018-11-04T06:43:52.815Z,19.60
2018-11-04T06:44:30.264Z,19.60
2018-11-04T06:45:07.525Z,19.60
2018-11-04T06:45:44.816Z,19.50
2018-11-04T06:46:22.293Z,19.50
2018-11-04T06:46:59.716Z,19.60
2018-11-04T06:47:37.042Z,19.50
2018-11-04T06:48:14.480Z,19.60
2018-11-04T06:48:52.316Z,19.50
2018-11-04T06:49:29.708Z,19.50
2018-11-04T06:50:07.443Z,19.60
2018-11-04T06:50:44.998Z,19.50
2018-11-04T06:51:22.340Z,19.50
2018-11-04T06:51:59.638Z,19.50
2018-11-04T06:52:37.119Z,19.50
2018-11-04T06:53:14.667Z,19.60
2018-11-04T06:53:52.241Z,19.60
2018-11-04T06:54:29.659Z,19.50
2018-11-04T06:55:07.193Z,19.50
2018-11-04T06:55:44.721Z,19.60
2018-11-04T06:56:22.067Z,19.50
2018-11-04T06:56:59.585Z,19.50
2018-11-04T06:57:37.042Z,19.50
2018-11-04T06:58:14.365Z,19.50
2018-11-04T06:58:51.875Z,19.60
2018-11-04T06:59:29.222Z,19.60
2018-11-04T07:00:06.852Z,19.50
2018-11-04T07:00:44.295Z,19.50
2018-11-04T07:01:21.876Z,19.50
2018-11-04T07:01:59.386Z,19.50
2018-11-04T07:02:36.779Z,19.50
2018-11-04T07:03:14.067Z,19.50
2018-11-04T07:03:51.586Z,19.50
2018-11-04T07:04:29.101Z,19.50
2018-11-04T07:05:06.736Z,19.50
2018-11-04T07:05:44.199Z,19.60
2018-11-04T07:06:21.685Z,19.50
2018-11-04T07:06:59.208Z,19.50
2018-11-04T07:07:36.554Z,19.60
2018-11-04T07:08:13.802Z,19.60
2018-11-04T07:08:51.128Z,19.60
2018-11-04T07:09:28.481Z,19.50
2018-11-04T07:10:06.011Z,19.60
2018-11-04T07:10:43.572Z,19.60
2018-11-04T07:11:20.913Z,19.50
2018-11-04T07:11:58.411Z,19.50
2018-11-04T07:12:35.891Z,19.60
2018-11-04T07:13:13.292Z,19.60
2018-11-04T07:13:50.612Z,19.60
2018-11-04T07:14:28.272Z,19.60
2018-11-04T07:15:05.791Z,19.50
2018-11-04T07:15:43.007Z,19.60
2018-11-04T07:16:20.297Z,19.50
2018-11-04T07:16:57.793Z,17.30
2018-11-04T07:17:35.284Z,19.50
2018-11-04T07:18:12.761Z,19.50
2018-11-04T07:18:50.213Z,19.60
2018-11-04T07:19:27.613Z,19.60
2018-11-04T07:20:05.052Z,19.50
2018-11-04T07:20:42.605Z,19.50
2018-11-04T07:21:20.185Z,19.50
2018-11-04T07:21:57.785Z,19.50
2018-11-04T07:22:35.248Z,19.50
2018-11-04T07:23:12.827Z,19.60
2018-11-04T07:23:50.258Z,19.60
2018-11-04T07:24:27.587Z,19.50
2018-11-04T07:25:05.117Z,19.50
2018-11-04T07:25:42.459Z,19.50
2018-11-04T07:26:19.790Z,19.50
2018-11-04T07:26:57.103Z,19.50
2018-11-04T07:27:34.358Z,19.50
2018-11-04T07:28:11.787Z,19.50
2018-11-04T07:28:49.136Z,19.50
2018-11-04T07:29:26.378Z,19.60
2018-11-04T07:30:03.824Z,19.50
2018-11-04T07:30:41.324Z,19.60
2018-11-04T07:31:18.923Z,19.60
2018-11-04T07:31:56.247Z,19.50
2018-11-04T07:32:33.555Z,19.50
2018-11-04T07:33:10.790Z,19.60
2018-11-04T07:33:48.323Z,19.50
2018-11-04T07:34:25.533Z,19.50
2018-11-04T07:35:03.026Z,19.50
2018-11-04T07:35:40.582Z,19.60
2018-11-04T07:36:18.032Z,19.50
2018-11-04T07:36:55.581Z,19.50
2018-11-04T07:37:32.914Z,19.50
2018-11-04T07:38:10.466Z,19.60
2018-11-04T07:38:47.746Z,19.60
2018-11-04T07:39:25.225Z,19.60
2018-11-04T07:40:02.690Z,19.50
2018-11-04T07:40:40.242Z,19.60
2018-11-04T07:41:17.712Z,19.60
2018-11-04T07:41:55.251Z,19.60
2018-11-04T07:42:32.913Z,19.60
2018-11-04T07:43:10.429Z,19.60
2018-11-04T07:43:47.933Z,19.60
2018-11-04T07:44:25.566Z,19.60
2018-11-04T07:45:02.986Z,19.50
2018-11-04T07:45:40.633Z,19.60
2018-11-04T07:46:18.043Z,19.60
2018-11-04T07:46:55.539Z,19.60
2018-11-04T07:47:32.854Z,19.60
2018-11-04T07:48:10.154Z,19.60
2018-11-04T07:48:47.392Z,19.60
2018-11-04T07:49:24.825Z,19.60
2018-11-04T07:50:02.146Z,19.50
2018-11-04T07:50:39.531Z,19.60
2018-11-04T07:51:17.153Z,19.60
2018-11-04T07:51:54.596Z,19.60
2018-11-04T07:52:32.011Z,19.50
2018-11-04T07:53:09.458Z,19.60
2018-11-04T07:53:46.817Z,19.60
2018-11-04T07:54:24.234Z,19.60
2018-11-04T07:55:01.527Z,19.60
2018-11-04T07:55:39.117Z,19.60
2018-11-04T07:56:16.452Z,19.60
2018-11-04T07:56:53.852Z,19.50
2018-11-04T07:57:31.421Z,19.50
2018-11-04T07:58:08.917Z,19.60
2018-11-04T07:58:46.291Z,19.50
2018-11-04T07:59:23.536Z,19.50
2018-11-04T08:00:01.036Z,19.50
2018-11-04T08:00:38.398Z,19.60
2018-11-04T08:01:15.808Z,19.50
2018-11-04T08:01:53.397Z,19.50
2018-11-04T08:02:31.057Z,19.50
2018-11-04T08:03:08.468Z,19.60
2018-11-04T08:03:46.058Z,19.50